Time;durP1;ratioP1;P1;durP2;ratioP2;P2;SDS_P1;SDS_P2;PMS_P1;PMS_P2;Temp;Humidity;BMP_temperature;BMP_pressure;BME280_temperature;BME280_humidity;BME280_pressure;Samples;Min_cycle;Max_cycle;Signal;HPM_P1;HPM_P2
2022/01/04 00:01:59;;;;;;;27.80;5.15;;;12.70;99.90;;;;;;5029886;28;20363;-85
2022/01/04 00:04:25;;;;;;;27.70;5.68;;;12.70;99.90;;;;;;5029837;28;20021;-85
2022/01/04 00:06:50;;;;;;;26.15;5.35;;;12.70;99.90;;;;;;5011702;28;20167;-85
2022/01/04 00:09:16;;;;;;;25.42;5.00;;;12.60;99.90;;;;;;5030246;28;20032;-85
2022/01/04 00:14:17;;;;;;;25.73;4.68;;;12.80;99.90;;;;;;5029730;28;20033;-84
2022/01/04 00:16:43;;;;;;;22.65;5.10;;;12.80;99.90;;;;;;5029771;28;20072;-85
2022/01/04 00:19:10;;;;;;;26.65;5.07;;;12.90;99.90;;;;;;5029945;28;20104;-85
2022/01/04 00:21:36;;;;;;;21.75;5.00;;;12.90;99.90;;;;;;5011622;28;20025;-86
2022/01/04 00:24:02;;;;;;;20.60;4.78;;;12.90;99.90;;;;;;5003950;28;20061;-86
2022/01/04 00:26:29;;;;;;;25.75;5.55;;;12.90;99.90;;;;;;5010551;28;20018;-86
2022/01/04 00:28:54;;;;;;;22.23;4.55;;;12.90;99.90;;;;;;4989651;28;20108;-85
2022/01/04 00:31:20;;;;;;;32.50;5.28;;;12.90;99.90;;;;;;4992392;28;20497;-86
2022/01/04 00:33:46;;;;;;;16.90;3.85;;;12.90;99.90;;;;;;4989668;28;20037;-87
2022/01/04 00:36:12;;;;;;;23.10;4.82;;;12.90;99.90;;;;;;5008933;28;20118;-87
2022/01/04 00:38:38;;;;;;;20.88;3.90;;;12.90;99.90;;;;;;4989553;28;20038;-87
2022/01/04 00:41:03;;;;;;;21.73;6.90;;;12.90;99.90;;;;;;5008078;28;20018;-87
2022/01/04 00:43:29;;;;;;;22.17;4.68;;;12.90;99.90;;;;;;5009873;28;20030;-86
2022/01/04 00:45:55;;;;;;;27.35;4.32;;;13.00;99.90;;;;;;5010117;28;20387;-87
2022/01/04 00:50:47;;;;;;;25.38;4.25;;;13.00;99.90;;;;;;5006499;28;20049;-86
2022/01/04 00:53:12;;;;;;;22.83;3.90;;;13.00;99.90;;;;;;4992597;28;20038;-86
2022/01/04 00:55:39;;;;;;;24.92;3.90;;;13.00;99.90;;;;;;5009680;28;20091;-86
2022/01/04 00:58:05;;;;;;;20.25;3.40;;;13.10;99.90;;;;;;5001817;28;20038;-86
2022/01/04 01:00:32;;;;;;;19.63;3.60;;;13.10;99.90;;;;;;5009892;28;20112;-86
2022/01/04 01:02:57;;;;;;;22.13;4.32;;;13.20;99.90;;;;;;5010129;28;20030;-86
2022/01/04 01:05:25;;;;;;;24.33;4.78;;;13.30;99.90;;;;;;5009879;28;20482;-86
2022/01/04 01:07:55;;;;;;;22.15;5.53;;;13.30;99.90;;;;;;5009748;28;20036;-86
2022/01/04 01:12:48;;;;;;;27.83;5.53;;;13.30;99.90;;;;;;5009829;28;20026;-87
2022/01/04 01:15:13;;;;;;;27.33;4.35;;;13.30;99.90;;;;;;5010315;28;20033;-86
2022/01/04 01:17:39;;;;;;;19.48;3.40;;;13.20;99.90;;;;;;5010375;28;20493;-86
2022/01/04 01:20:08;;;;;;;27.52;3.83;;;13.20;99.90;;;;;;5009347;28;20621;-86
2022/01/04 01:22:34;;;;;;;18.88;3.78;;;13.20;99.90;;;;;;4992204;28;20037;-86
2022/01/04 01:25:00;;;;;;;22.50;4.05;;;13.10;99.90;;;;;;5009709;28;20169;-86
2022/01/04 01:27:25;;;;;;;26.35;4.95;;;13.10;99.90;;;;;;5009659;28;20120;-86
2022/01/04 01:29:51;;;;;;;21.73;3.80;;;13.00;99.90;;;;;;4991986;28;20030;-86
2022/01/04 01:32:17;;;;;;;19.38;4.53;;;12.90;99.90;;;;;;5009855;28;20503;-86
2022/01/04 01:34:42;;;;;;;26.73;5.47;;;12.90;99.90;;;;;;4998817;28;20617;-88
2022/01/04 01:37:09;;;;;;;28.27;5.78;;;12.90;99.90;;;;;;4988667;28;20033;-86
2022/01/04 01:39:35;;;;;;;23.13;4.60;;;12.90;99.90;;;;;;5008996;28;20037;-85
2022/01/04 01:42:00;;;;;;;21.75;3.97;;;12.90;99.90;;;;;;5009240;28;20088;-86
2022/01/04 01:44:29;;;;;;;26.75;4.60;;;12.90;99.90;;;;;;5009333;28;20025;-89
2022/01/04 01:46:55;;;;;;;41.92;6.07;;;12.90;99.90;;;;;;5009330;28;20018;-90
2022/01/04 01:49:20;;;;;;;24.73;4.78;;;12.80;99.90;;;;;;4989214;28;20061;-91
2022/01/04 01:51:46;;;;;;;41.88;5.88;;;12.80;99.90;;;;;;5005156;28;20025;-89
2022/01/04 01:54:12;;;;;;;34.55;4.72;;;12.80;99.90;;;;;;5028826;28;20030;-87
2022/01/04 01:56:38;;;;;;;34.60;5.53;;;12.70;99.90;;;;;;5011119;28;20025;-85
2022/01/04 01:59:04;;;;;;;29.63;5.78;;;12.70;99.90;;;;;;5028815;28;20029;-85
2022/01/04 02:01:29;;;;;;;23.52;5.22;;;12.80;99.90;;;;;;5028615;28;20385;-86
2022/01/04 02:03:55;;;;;;;25.02;4.20;;;12.70;99.90;;;;;;5028480;28;20026;-86
2022/01/04 02:06:22;;;;;;;37.58;6.13;;;12.60;99.90;;;;;;5028361;28;20028;-86
2022/01/04 02:08:47;;;;;;;35.75;4.55;;;12.60;99.90;;;;;;5031542;28;20042;-86
2022/01/04 02:11:13;;;;;;;29.15;5.32;;;12.60;99.90;;;;;;5032355;28;20030;-86
2022/01/04 02:13:39;;;;;;;37.65;6.38;;;12.50;99.90;;;;;;5032292;28;20262;-87
2022/01/04 02:16:08;;;;;;;31.85;5.28;;;12.60;99.90;;;;;;5032181;28;20390;-86
2022/01/04 02:18:34;;;;;;;24.30;3.85;;;12.60;99.90;;;;;;5024078;28;20100;-86
2022/01/04 02:20:59;;;;;;;29.60;5.07;;;12.50;99.90;;;;;;5031405;28;20120;-86
2022/01/04 02:23:25;;;;;;;37.60;4.82;;;12.60;99.90;;;;;;5031706;28;20398;-85
2022/01/04 02:25:51;;;;;;;25.52;5.22;;;12.60;99.90;;;;;;5031557;28;20026;-86
2022/01/04 02:28:20;;;;;;;19.73;3.47;;;12.60;99.90;;;;;;5013938;28;20429;-90
2022/01/04 02:30:47;;;;;;;26.67;4.05;;;12.60;99.90;;;;;;5013804;28;20033;-89
2022/01/04 02:33:14;;;;;;;26.33;4.57;;;12.60;99.90;;;;;;5004603;28;20513;-89
2022/01/04 02:35:40;;;;;;;22.40;4.43;;;12.50;99.90;;;;;;5013816;28;20506;-91
2022/01/04 02:38:05;;;;;;;28.80;4.97;;;12.50;99.90;;;;;;5014934;28;20088;-86
2022/01/04 02:40:31;;;;;;;24.48;3.92;;;12.50;99.90;;;;;;5012902;28;20030;-85
2022/01/04 02:42:57;;;;;;;20.20;4.25;;;12.40;99.90;;;;;;5012075;28;20037;-85
2022/01/04 02:45:23;;;;;;;21.10;4.10;;;12.50;99.90;;;;;;5005794;28;20041;-84
2022/01/04 02:47:49;;;;;;;30.75;4.80;;;12.60;99.90;;;;;;5011844;28;20100;-84
2022/01/04 02:50:15;;;;;;;24.15;5.43;;;12.70;99.90;;;;;;5011526;28;20129;-88
2022/01/04 02:52:41;;;;;;;24.42;5.63;;;12.80;99.90;;;;;;4994544;28;20383;-88
2022/01/04 02:55:09;;;;;;;32.42;6.13;;;12.80;99.90;;;;;;5011960;28;20033;-85
2022/01/04 02:57:35;;;;;;;25.70;5.03;;;12.80;99.90;;;;;;5011838;28;20025;-84
2022/01/04 03:00:03;;;;;;;31.33;5.15;;;12.90;99.90;;;;;;5011680;28;20034;-89
2022/01/04 03:02:29;;;;;;;21.17;5.03;;;12.90;99.90;;;;;;5011923;28;20018;-90
2022/01/04 03:04:54;;;;;;;26.77;6.18;;;13.00;99.90;;;;;;5011333;28;20030;-85
2022/01/04 03:07:21;;;;;;;32.50;4.88;;;13.10;99.90;;;;;;5011533;28;20509;-85
2022/01/04 03:09:47;;;;;;;29.05;5.22;;;13.10;99.90;;;;;;4990749;28;20046;-89
2022/01/04 03:12:12;;;;;;;23.27;4.88;;;13.10;99.90;;;;;;5009355;28;20030;-86
2022/01/04 03:14:38;;;;;;;37.08;7.78;;;13.00;99.90;;;;;;5011581;28;20033;-85
2022/01/04 03:17:04;;;;;;;34.05;5.95;;;13.00;99.90;;;;;;5011452;28;20229;-86
2022/01/04 03:19:30;;;;;;;29.33;5.88;;;13.00;99.90;;;;;;5010873;28;20018;-85
2022/01/04 03:21:56;;;;;;;33.97;6.20;;;13.10;99.90;;;;;;5011083;28;20596;-89
2022/01/04 03:24:21;;;;;;;27.48;5.75;;;13.10;99.90;;;;;;5011586;28;20033;-84
2022/01/04 03:26:47;;;;;;;38.47;6.47;;;13.10;99.90;;;;;;5011397;28;20339;-89
2022/01/04 03:29:15;;;;;;;34.88;6.03;;;13.10;99.90;;;;;;5012251;28;20121;-85
2022/01/04 03:31:42;;;;;;;37.85;6.88;;;13.00;99.90;;;;;;5011024;28;20085;-86
2022/01/04 03:34:09;;;;;;;22.05;5.75;;;13.00;99.90;;;;;;4992598;28;20487;-87
2022/01/04 03:36:35;;;;;;;26.70;5.35;;;13.00;99.90;;;;;;5010842;28;20100;-85
2022/01/04 03:39:04;;;;;;;30.50;5.57;;;13.10;99.90;;;;;;4992170;28;20333;-85
2022/01/04 03:41:33;;;;;;;28.83;5.50;;;13.10;99.90;;;;;;5011124;28;20485;-85
2022/01/04 03:43:59;;;;;;;31.15;5.40;;;13.20;99.90;;;;;;4993880;28;20029;-85
2022/01/04 03:46:25;;;;;;;24.20;5.55;;;13.20;99.90;;;;;;4992081;28;20053;-85
2022/01/04 03:48:50;;;;;;;20.13;5.70;;;13.30;99.90;;;;;;5010581;28;20026;-85
2022/01/04 03:51:16;;;;;;;26.73;5.93;;;13.30;99.90;;;;;;5010507;28;20048;-86
2022/01/04 03:53:42;;;;;;;27.63;6.22;;;13.40;99.90;;;;;;5010851;28;20397;-86
2022/01/04 03:56:08;;;;;;;26.15;5.30;;;13.40;99.90;;;;;;4993223;28;20124;-86
2022/01/04 03:58:34;;;;;;;32.25;5.40;;;13.30;99.90;;;;;;5011075;28;20153;-87
2022/01/04 04:01:01;;;;;;;30.15;5.95;;;13.30;99.90;;;;;;5010929;28;20033;-87
2022/01/04 04:03:27;;;;;;;29.88;6.70;;;13.30;99.90;;;;;;5004457;28;20583;-87
2022/01/04 04:05:53;;;;;;;37.72;5.70;;;13.20;99.90;;;;;;5000834;28;20030;-87
2022/01/04 04:08:19;;;;;;;33.00;6.18;;;13.30;99.90;;;;;;5010593;28;20501;-87
2022/01/04 04:10:44;;;;;;;26.02;5.00;;;13.30;99.90;;;;;;5010791;28;20059;-87
2022/01/04 04:13:10;;;;;;;31.80;5.65;;;13.20;99.90;;;;;;4990084;28;20022;-87
2022/01/04 04:15:40;;;;;;;37.78;6.93;;;13.20;99.90;;;;;;4992142;28;20414;-87
2022/01/04 04:18:07;;;;;;;48.38;6.43;;;13.20;99.90;;;;;;4993195;28;20026;-86
2022/01/04 04:20:34;;;;;;;27.33;5.93;;;13.20;99.90;;;;;;5010280;28;20041;-86
2022/01/04 04:23:00;;;;;;;28.30;5.15;;;13.20;99.90;;;;;;5010468;28;20030;-86
2022/01/04 04:25:25;;;;;;;38.22;6.47;;;13.10;99.90;;;;;;5010300;28;20521;-86
2022/01/04 04:27:51;;;;;;;31.33;5.20;;;13.10;99.90;;;;;;5010392;28;20029;-86
2022/01/04 04:30:17;;;;;;;35.35;5.38;;;13.10;99.90;;;;;;5009863;28;20034;-86
2022/01/04 04:32:42;;;;;;;40.17;6.75;;;13.10;99.90;;;;;;5009866;28;20022;-85
2022/01/04 04:35:08;;;;;;;31.80;6.43;;;13.10;99.90;;;;;;5010051;28;20040;-85
2022/01/04 04:37:34;;;;;;;33.42;6.57;;;13.20;99.90;;;;;;5010561;28;20026;-85
2022/01/04 04:40:00;;;;;;;22.90;5.28;;;13.20;99.90;;;;;;4992650;28;20132;-85
2022/01/04 04:42:26;;;;;;;35.22;6.20;;;13.20;99.90;;;;;;4992801;28;20022;-84
2022/01/04 04:44:51;;;;;;;32.53;5.80;;;13.20;99.90;;;;;;5010079;28;20037;-84
2022/01/04 04:47:17;;;;;;;20.30;5.20;;;13.30;99.90;;;;;;4991959;28;20026;-84
2022/01/04 04:49:43;;;;;;;29.95;5.97;;;13.30;99.90;;;;;;5009339;28;20060;-84
2022/01/04 04:52:09;;;;;;;29.40;6.00;;;13.30;99.90;;;;;;5009975;28;20116;-84
2022/01/04 04:54:34;;;;;;;35.20;5.80;;;13.40;99.90;;;;;;5009771;28;20029;-84
2022/01/04 04:57:00;;;;;;;28.88;5.93;;;13.40;99.90;;;;;;5010077;28;20454;-84
2022/01/04 04:59:26;;;;;;;22.23;5.65;;;13.40;99.90;;;;;;5010384;28;20026;-84
2022/01/04 05:01:52;;;;;;;25.38;5.55;;;13.40;99.90;;;;;;5009697;28;20101;-83
2022/01/04 05:04:18;;;;;;;37.35;5.60;;;13.50;99.90;;;;;;5009772;28;20105;-84
2022/01/04 05:06:44;;;;;;;26.00;4.95;;;13.50;99.90;;;;;;5009325;28;20018;-84
2022/01/04 05:09:09;;;;;;;28.58;5.45;;;13.60;99.90;;;;;;5009899;28;20040;-85
2022/01/04 05:11:35;;;;;;;27.15;5.57;;;13.60;99.90;;;;;;5025000;28;20013;-84
2022/01/04 05:14:01;;;;;;;33.60;6.72;;;13.70;99.90;;;;;;5028647;28;20064;-84
2022/01/04 05:16:26;;;;;;;38.42;7.13;;;13.60;99.90;;;;;;5028909;28;20084;-84
2022/01/04 05:18:54;;;;;;;32.72;5.50;;;13.60;99.90;;;;;;5028880;28;20022;-84
2022/01/04 05:21:19;;;;;;;32.95;6.38;;;13.40;99.90;;;;;;5028621;28;20521;-84
2022/01/04 05:23:45;;;;;;;29.63;5.20;;;13.30;99.90;;;;;;5028914;28;20033;-84
2022/01/04 05:26:10;;;;;;;14.65;2.72;;;13.10;99.90;;;;;;5028737;28;20044;-83
2022/01/04 05:28:38;;;;;;;12.15;1.45;;;12.60;99.90;;;;;;5028808;28;20103;-83
2022/01/04 05:31:04;;;;;;;8.30;1.45;;;12.10;99.90;;;;;;5010941;28;20026;-83
2022/01/04 05:33:30;;;;;;;9.02;1.08;;;11.90;99.90;;;;;;5028943;28;20393;-83
2022/01/04 05:35:55;;;;;;;15.05;1.48;;;11.80;99.90;;;;;;5028613;28;20465;-83
2022/01/04 05:38:24;;;;;;;10.77;1.33;;;11.70;99.90;;;;;;5029004;28;20076;-83
2022/01/04 05:40:49;;;;;;;19.25;2.08;;;11.50;99.90;;;;;;5028890;28;20589;-83
2022/01/04 05:43:15;;;;;;;11.88;1.42;;;11.40;99.90;;;;;;5031674;28;20116;-83
2022/01/04 05:45:41;;;;;;;11.90;1.83;;;11.30;99.90;;;;;;5024870;28;20013;-83
2022/01/04 05:48:06;;;;;;;22.08;2.30;;;11.30;99.90;;;;;;5032364;28;20041;-84
2022/01/04 05:50:32;;;;;;;17.23;1.73;;;11.20;99.90;;;;;;5032045;28;20073;-84
2022/01/04 05:52:58;;;;;;;24.80;3.42;;;11.20;99.90;;;;;;5014697;28;20025;-84
2022/01/04 05:55:23;;;;;;;17.40;3.08;;;11.20;99.90;;;;;;5032334;28;20025;-84
2022/01/04 05:57:49;;;;;;;28.77;3.03;;;11.10;99.90;;;;;;5032382;28;20502;-84
2022/01/04 06:00:15;;;;;;;28.08;2.92;;;11.00;99.90;;;;;;5032437;28;20025;-84
2022/01/04 06:02:41;;;;;;;23.67;4.40;;;11.10;99.90;;;;;;5032416;28;20470;-84
2022/01/04 06:05:08;;;;;;;19.70;3.08;;;11.00;99.90;;;;;;5032010;28;20029;-84
2022/01/04 06:07:35;;;;;;;15.82;4.13;;;11.00;99.90;;;;;;5007342;28;20045;-84
2022/01/04 06:10:01;;;;;;;11.45;2.05;;;11.00;99.90;;;;;;5031594;28;20037;-84
2022/01/04 06:15:09;;;;;;;9.25;0.98;;;11.10;99.90;;;;;;5032088;28;20025;-84
2022/01/04 06:17:43;;;;;;;8.90;2.58;;;11.10;99.90;;;;;;5032000;28;20021;-84
2022/01/04 06:20:12;;;;;;;3.65;0.63;;;11.10;99.90;;;;;;5013981;28;20164;-84
2022/01/04 06:22:38;;;;;;;1.48;0.45;;;11.20;99.90;;;;;;5032500;28;20030;-84
2022/01/04 06:25:06;;;;;;;2.33;0.50;;;11.20;99.90;;;;;;5031993;28;20064;-84
2022/01/04 06:27:32;;;;;;;2.28;0.50;;;11.10;99.90;;;;;;5031850;28;20021;-84
2022/01/04 06:29:58;;;;;;;5.72;0.50;;;11.10;99.90;;;;;;5014037;28;20041;-84
2022/01/04 06:32:24;;;;;;;1.65;0.47;;;11.10;99.90;;;;;;5013926;28;20386;-84
2022/01/04 06:34:50;;;;;;;2.85;0.98;;;11.00;99.90;;;;;;5013765;28;20129;-84
2022/01/04 06:37:16;;;;;;;2.25;0.50;;;11.10;99.90;;;;;;5031637;28;20021;-84
2022/01/04 06:39:43;;;;;;;2.40;0.70;;;11.10;99.90;;;;;;5032080;28;20072;-84
2022/01/04 06:42:09;;;;;;;3.95;0.60;;;11.10;99.90;;;;;;5031707;28;20508;-84
2022/01/04 06:44:35;;;;;;;2.60;0.80;;;11.10;99.90;;;;;;5031663;28;20027;-84
2022/01/04 06:47:01;;;;;;;1.20;0.40;;;11.00;99.90;;;;;;5031841;28;20029;-84
2022/01/04 06:49:26;;;;;;;1.80;0.55;;;11.00;99.90;;;;;;5031029;28;20049;-83
2022/01/04 06:51:52;;;;;;;5.05;0.70;;;11.00;99.90;;;;;;5031717;28;20032;-84
2022/01/04 06:54:19;;;;;;;2.35;0.85;;;11.00;99.90;;;;;;5030470;28;20117;-83
2022/01/04 06:56:46;;;;;;;2.72;0.60;;;11.00;99.90;;;;;;5031432;28;20437;-84
2022/01/04 06:59:12;;;;;;;1.15;0.70;;;10.90;99.90;;;;;;5031274;28;20026;-84
2022/01/04 07:01:38;;;;;;;1.75;1.00;;;10.90;99.90;;;;;;5031496;28;20078;-84
2022/01/04 07:04:05;;;;;;;3.78;0.90;;;10.90;99.90;;;;;;5031195;28;20021;-83
2022/01/04 07:06:32;;;;;;;2.63;0.77;;;11.00;99.90;;;;;;5030916;28;20025;-84
2022/01/04 07:08:58;;;;;;;3.13;1.02;;;10.90;99.90;;;;;;5031006;28;20044;-83
2022/01/04 07:11:24;;;;;;;3.70;0.80;;;10.90;99.90;;;;;;5031116;28;20029;-84
2022/01/04 07:13:50;;;;;;;2.13;0.80;;;10.90;99.90;;;;;;5013382;28;20025;-83
2022/01/04 07:16:16;;;;;;;1.77;0.85;;;10.90;99.90;;;;;;5030917;28;20096;-83
2022/01/04 07:18:46;;;;;;;1.45;1.02;;;10.90;99.90;;;;;;5030849;28;20052;-84
2022/01/04 07:21:13;;;;;;;1.33;1.00;;;10.90;99.90;;;;;;5012922;28;20374;-83
2022/01/04 07:23:39;;;;;;;1.60;1.00;;;10.90;99.90;;;;;;5031108;28;20033;-83
2022/01/04 07:26:04;;;;;;;5.90;1.77;;;10.80;99.90;;;;;;5030824;28;20029;-83
2022/01/04 07:28:31;;;;;;;2.72;1.10;;;10.80;99.90;;;;;;5030826;28;20045;-83
2022/01/04 07:30:57;;;;;;;3.20;1.35;;;10.80;99.90;;;;;;5031086;28;20460;-83
2022/01/04 07:33:23;;;;;;;1.38;1.17;;;10.80;99.90;;;;;;5030641;28;20044;-84
2022/01/04 07:35:49;;;;;;;1.67;1.30;;;10.80;99.90;;;;;;5030061;28;20029;-83
2022/01/04 07:38:14;;;;;;;2.08;1.40;;;10.70;99.90;;;;;;5012865;28;20079;-83
2022/01/04 07:40:40;;;;;;;1.83;1.52;;;10.70;99.90;;;;;;5012593;28;20030;-83
2022/01/04 07:43:06;;;;;;;1.65;1.50;;;10.70;99.90;;;;;;5030567;28;20496;-83
2022/01/04 07:45:33;;;;;;;2.53;1.67;;;10.60;99.90;;;;;;5030262;28;20087;-83
2022/01/04 07:48:00;;;;;;;4.93;1.80;;;10.70;99.90;;;;;;5030238;28;20010;-83
2022/01/04 07:50:27;;;;;;;2.08;1.65;;;10.70;99.90;;;;;;5012017;28;20049;-83
2022/01/04 07:52:53;;;;;;;2.10;1.58;;;10.60;99.90;;;;;;5030472;28;20018;-83
2022/01/04 07:55:19;;;;;;;3.45;1.83;;;10.60;99.90;;;;;;5030088;28;20029;-83
2022/01/04 07:57:45;;;;;;;1.85;1.60;;;10.60;99.90;;;;;;5029908;28;20026;-83
2022/01/04 08:00:14;;;;;;;3.03;1.60;;;10.50;99.90;;;;;;5030217;28;20029;-83
2022/01/04 08:02:42;;;;;;;2.95;1.38;;;10.50;99.90;;;;;;5029978;28;20109;-83
2022/01/04 08:05:11;;;;;;;1.67;1.33;;;10.50;99.90;;;;;;5011715;28;20087;-83
2022/01/04 08:07:37;;;;;;;3.95;1.90;;;10.50;99.90;;;;;;5030394;28;20529;-83
2022/01/04 08:10:04;;;;;;;3.30;1.48;;;10.50;99.90;;;;;;5030053;28;20052;-83
2022/01/04 08:12:30;;;;;;;2.28;1.40;;;10.50;99.90;;;;;;5029843;28;20481;-83
2022/01/04 08:14:56;;;;;;;1.40;1.10;;;10.50;99.90;;;;;;5030098;28;20030;-83
2022/01/04 08:17:22;;;;;;;2.53;1.20;;;10.40;99.90;;;;;;5029762;28;20018;-83
2022/01/04 08:19:50;;;;;;;1.80;1.10;;;10.40;99.90;;;;;;5029271;28;20385;-83
2022/01/04 08:22:15;;;;;;;1.70;1.10;;;10.40;99.90;;;;;;5029892;28;20026;-83
2022/01/04 08:24:41;;;;;;;3.53;1.50;;;10.40;99.90;;;;;;5030108;28;20466;-83
2022/01/04 08:27:07;;;;;;;3.13;2.33;;;10.40;99.90;;;;;;5029917;28;20482;-83
2022/01/04 08:29:32;;;;;;;2.53;1.42;;;10.40;99.90;;;;;;5029841;28;20524;-83
2022/01/04 08:31:59;;;;;;;2.17;1.40;;;10.30;99.90;;;;;;5029555;28;20537;-83
2022/01/04 08:34:25;;;;;;;1.95;1.25;;;10.30;99.90;;;;;;5028961;28;20482;-83
2022/01/04 08:36:51;;;;;;;1.73;1.10;;;10.40;99.90;;;;;;5029238;28;20375;-83
2022/01/04 08:39:17;;;;;;;2.35;0.90;;;10.40;99.90;;;;;;5011554;28;20108;-83
2022/01/04 08:41:50;;;;;;;3.22;0.77;;;10.30;99.90;;;;;;5029330;28;20482;-83
2022/01/04 08:44:16;;;;;;;1.75;0.90;;;10.30;99.90;;;;;;5011683;28;20083;-83
2022/01/04 08:46:42;;;;;;;1.20;0.80;;;10.30;99.90;;;;;;5011579;28;20379;-82
2022/01/04 08:49:08;;;;;;;3.05;0.85;;;10.40;99.90;;;;;;5003498;28;20083;-83
2022/01/04 08:51:35;;;;;;;1.67;0.90;;;10.40;99.90;;;;;;5029219;28;20323;-83
2022/01/04 08:54:04;;;;;;;5.38;3.17;;;10.40;99.90;;;;;;5029662;28;20053;-83
2022/01/04 08:56:30;;;;;;;29.75;17.60;;;10.40;99.90;;;;;;5029317;28;20071;-83
2022/01/04 08:58:56;;;;;;;9.82;6.57;;;10.30;99.90;;;;;;5029215;28;20076;-83
2022/01/04 09:01:22;;;;;;;4.35;2.00;;;10.30;99.90;;;;;;5029376;28;20455;-83
2022/01/04 09:03:48;;;;;;;6.88;4.88;;;10.30;99.90;;;;;;5029195;28;20052;-83
2022/01/04 09:06:14;;;;;;;6.40;4.07;;;10.30;99.90;;;;;;5029031;28;20036;-83
2022/01/04 09:08:39;;;;;;;3.30;2.50;;;10.30;99.90;;;;;;5029374;28;20034;-83
2022/01/04 09:11:05;;;;;;;5.85;3.33;;;10.30;99.90;;;;;;5026047;28;20033;-83
2022/01/04 09:13:39;;;;;;;3.55;2.60;;;10.30;99.90;;;;;;5024500;28;20056;-83
2022/01/04 09:18:46;;;;;;;3.45;3.15;;;10.40;99.90;;;;;;5035035;28;20065;-83
2022/01/04 09:21:16;;;;;;;4.32;1.92;;;10.50;99.90;;;;;;5017684;28;20426;-83
2022/01/04 09:23:45;;;;;;;4.30;1.90;;;10.50;99.90;;;;;;5035483;28;20017;-83
2022/01/04 09:26:11;;;;;;;2.70;1.60;;;10.50;99.90;;;;;;5017770;28;20461;-83
2022/01/04 09:28:37;;;;;;;3.15;1.30;;;10.50;99.90;;;;;;5035553;28;20025;-83
2022/01/04 09:31:03;;;;;;;2.90;1.35;;;10.50;99.90;;;;;;5035734;28;20393;-83
2022/01/04 09:33:29;;;;;;;2.90;1.02;;;10.50;99.90;;;;;;5035489;28;20021;-83
2022/01/04 09:35:55;;;;;;;3.13;1.10;;;10.50;99.90;;;;;;5035057;28;20017;-83
2022/01/04 09:38:21;;;;;;;1.88;1.10;;;10.50;99.90;;;;;;5035719;28;20180;-83
2022/01/04 09:40:49;;;;;;;1.85;0.90;;;10.50;99.90;;;;;;5035133;28;20049;-84
2022/01/04 09:43:16;;;;;;;4.63;0.90;;;10.60;99.90;;;;;;5035286;28;20021;-83
2022/01/04 09:45:41;;;;;;;4.63;0.90;;;10.60;99.90;;;;;;5035411;28;20025;-83
2022/01/04 09:48:08;;;;;;;2.05;1.10;;;10.60;99.90;;;;;;5035279;28;20029;-84
2022/01/04 09:50:36;;;;;;;3.55;0.73;;;10.60;99.90;;;;;;5035102;28;20054;-84
2022/01/04 09:53:06;;;;;;;3.28;0.82;;;10.60;99.90;;;;;;5035487;28;20037;-83
2022/01/04 09:55:33;;;;;;;2.70;0.90;;;10.60;99.90;;;;;;5035505;28;20025;-83
2022/01/04 09:57:59;;;;;;;3.83;0.75;;;10.60;99.90;;;;;;5035368;28;20029;-83
2022/01/04 10:00:25;;;;;;;1.50;0.38;;;10.70;99.90;;;;;;5035102;28;20025;-83
2022/01/04 10:02:51;;;;;;;1.20;0.70;;;10.60;99.90;;;;;;5035255;28;20025;-83
2022/01/04 10:05:21;;;;;;;5.80;0.50;;;10.70;99.90;;;;;;5035101;28;20215;-83
2022/01/04 10:07:48;;;;;;;2.22;0.73;;;10.70;99.90;;;;;;5035835;28;20028;-83
2022/01/04 10:10:18;;;;;;;2.17;0.60;;;10.60;99.90;;;;;;5035527;28;20490;-83
2022/01/04 10:12:51;;;;;;;4.85;0.90;;;10.70;99.90;;;;;;5035585;28;20112;-83
2022/01/04 10:15:40;;;;;;;5.70;0.75;;;10.80;99.90;;;;;;5035362;28;20079;-83
2022/01/04 10:18:12;;;;;;;7.10;0.75;;;10.80;99.90;;;;;;5035598;28;20502;-83
2022/01/04 10:20:39;;;;;;;3.60;0.90;;;10.80;99.90;;;;;;5034714;28;20038;-83
2022/01/04 10:23:16;;;;;;;5.53;1.02;;;10.90;99.90;;;;;;5035208;28;20022;-83
2022/01/04 10:25:44;;;;;;;5.43;0.95;;;11.00;99.90;;;;;;5035191;28;20025;-83
2022/01/04 10:28:10;;;;;;;3.78;0.80;;;10.90;99.90;;;;;;5034523;28;20363;-83
2022/01/04 10:30:39;;;;;;;5.40;0.88;;;10.90;99.90;;;;;;5032071;28;20040;-83
2022/01/04 10:33:09;;;;;;;7.50;1.70;;;11.00;99.90;;;;;;5032094;28;20063;-83
2022/01/04 10:35:43;;;;;;;8.23;1.35;;;11.10;99.90;;;;;;5023623;28;20017;-83
2022/01/04 10:38:09;;;;;;;4.90;1.20;;;11.10;99.90;;;;;;5031634;28;20071;-83
2022/01/04 10:40:35;;;;;;;6.97;1.20;;;11.10;99.90;;;;;;5031979;28;20131;-83
2022/01/04 10:43:16;;;;;;;4.38;1.50;;;11.20;99.90;;;;;;5031374;28;20188;-83
2022/01/04 10:45:43;;;;;;;5.70;1.30;;;11.20;99.90;;;;;;5032013;28;20022;-83
2022/01/04 10:48:16;;;;;;;10.40;1.60;;;11.20;99.90;;;;;;5013878;28;20533;-83
2022/01/04 10:50:45;;;;;;;10.90;2.03;;;11.20;99.90;;;;;;5031199;28;20042;-83
2022/01/04 10:53:17;;;;;;;7.70;2.28;;;11.10;99.90;;;;;;5014150;28;20437;-83
2022/01/04 10:55:44;;;;;;;7.88;1.92;;;11.10;99.90;;;;;;5031941;28;20390;-83
2022/01/04 10:58:24;;;;;;;5.50;1.58;;;11.00;99.90;;;;;;5031424;28;20022;-83
2022/01/04 11:00:52;;;;;;;9.75;1.88;;;11.00;99.90;;;;;;4988690;28;20455;-83
2022/01/04 11:03:23;;;;;;;10.43;2.13;;;11.10;99.90;;;;;;5012182;28;20061;-84
2022/01/04 11:05:56;;;;;;;9.77;1.90;;;11.10;99.90;;;;;;5011462;28;20022;-83
2022/01/04 11:08:22;;;;;;;6.40;1.73;;;11.20;99.90;;;;;;5011907;28;20037;-83
2022/01/04 11:10:49;;;;;;;13.60;2.20;;;11.10;99.90;;;;;;4994353;28;20034;-84
2022/01/04 11:13:15;;;;;;;8.70;2.45;;;11.10;99.90;;;;;;5012071;28;20025;-87
2022/01/04 11:15:42;;;;;;;8.07;1.90;;;11.10;99.90;;;;;;5011979;28;20050;-86
2022/01/04 11:18:08;;;;;;;6.10;1.65;;;11.20;99.90;;;;;;4994327;28;20117;-87
2022/01/04 11:20:38;;;;;;;6.53;1.65;;;11.20;99.90;;;;;;5011360;28;20018;-86
2022/01/04 11:23:04;;;;;;;8.45;1.73;;;11.30;99.90;;;;;;5015963;28;20025;-86
2022/01/04 11:25:30;;;;;;;6.03;1.33;;;11.30;99.90;;;;;;5009544;28;20459;-86
2022/01/04 11:28:00;;;;;;;5.15;1.90;;;11.50;99.90;;;;;;5029483;28;20053;-86
2022/01/04 11:30:39;;;;;;;7.88;2.13;;;11.40;99.90;;;;;;5030677;28;20025;-86
2022/01/04 11:33:25;;;;;;;7.90;2.08;;;11.60;99.90;;;;;;5020742;28;20105;-86
2022/01/04 11:35:52;;;;;;;7.97;1.73;;;11.70;99.90;;;;;;4990443;28;20565;-86
2022/01/04 11:38:32;;;;;;;6.30;1.27;;;11.70;99.90;;;;;;5009310;28;20121;-86
2022/01/04 11:40:58;;;;;;;12.15;2.13;;;11.80;99.90;;;;;;5010654;28;20030;-86
2022/01/04 11:43:38;;;;;;;7.90;1.83;;;11.80;99.90;;;;;;5010939;28;20109;-86
2022/01/04 11:46:04;;;;;;;7.57;1.48;;;11.80;99.90;;;;;;4991195;28;20030;-86
2022/01/04 11:48:38;;;;;;;7.63;1.35;;;11.80;99.90;;;;;;5010826;28;20109;-86
2022/01/04 11:51:09;;;;;;;11.90;1.40;;;11.70;99.90;;;;;;4991249;28;20043;-86
2022/01/04 11:53:36;;;;;;;6.53;2.17;;;11.70;99.90;;;;;;4992078;28;20038;-86
2022/01/04 11:56:05;;;;;;;10.93;2.15;;;11.80;99.90;;;;;;5011144;28;20585;-85
2022/01/04 11:58:51;;;;;;;8.35;1.90;;;11.80;99.90;;;;;;5011063;28;20014;-86
2022/01/04 12:01:27;;;;;;;9.73;2.00;;;11.70;99.90;;;;;;5011011;28;20108;-86
2022/01/04 12:03:53;;;;;;;7.93;2.05;;;11.80;99.90;;;;;;5010810;28;20550;-85
2022/01/04 12:06:21;;;;;;;16.23;3.00;;;11.90;99.90;;;;;;5010408;28;20099;-86
2022/01/04 12:08:50;;;;;;;16.75;5.20;;;11.80;99.90;;;;;;5010726;28;20101;-86
2022/01/04 12:11:25;;;;;;;14.15;3.47;;;12.00;99.90;;;;;;5010844;28;20519;-86
2022/01/04 12:13:56;;;;;;;14.02;2.30;;;12.00;99.90;;;;;;5010841;28;20112;-86
2022/01/04 12:16:39;;;;;;;17.80;2.45;;;12.00;99.90;;;;;;5004577;28;20036;-86
2022/01/04 12:19:09;;;;;;;19.95;2.22;;;11.90;99.90;;;;;;5010264;28;20457;-86
2022/01/04 12:21:48;;;;;;;17.77;2.40;;;12.00;99.90;;;;;;5010631;28;20026;-86
2022/01/04 12:24:18;;;;;;;11.45;1.75;;;11.90;99.90;;;;;;4985570;28;20117;-86
2022/01/04 12:26:43;;;;;;;19.27;2.28;;;11.90;99.90;;;;;;5007842;28;20025;-86
2022/01/04 12:29:09;;;;;;;15.70;2.47;;;11.90;99.90;;;;;;4989623;28;20080;-86
2022/01/04 12:31:55;;;;;;;16.50;2.25;;;12.00;99.90;;;;;;5007625;28;20076;-86
2022/01/04 12:34:33;;;;;;;17.85;2.55;;;12.00;99.90;;;;;;5010021;28;20022;-86
2022/01/04 12:37:00;;;;;;;12.50;2.05;;;12.00;99.90;;;;;;5010684;28;20394;-86
2022/01/04 12:39:39;;;;;;;13.68;2.35;;;12.00;99.90;;;;;;4989951;28;20289;-86
2022/01/04 12:42:05;;;;;;;9.40;1.85;;;12.00;99.90;;;;;;5010326;28;20049;-87
2022/01/04 12:44:31;;;;;;;14.25;2.00;;;12.00;99.90;;;;;;5010317;28;20113;-86
2022/01/04 12:46:59;;;;;;;13.05;2.35;;;12.10;99.90;;;;;;5010218;28;20446;-86
2022/01/04 12:49:27;;;;;;;13.15;2.45;;;12.00;99.90;;;;;;5009586;28;20042;-86
2022/01/04 12:51:56;;;;;;;15.00;3.40;;;11.90;99.90;;;;;;4989922;28;20387;-86
2022/01/04 12:54:27;;;;;;;13.65;3.75;;;11.90;99.90;;;;;;5010335;28;20515;-86